CheckWX is a tool to help pilots better visualize weather data.  It is not intended as a substitute for an official pre-flight weather briefing.

03:20:29 UTC

KCGF METAR
Cuyahoga County Airport
Cleveland, Ohio, USA
Current

35 mins ago

KCGF 260245Z 24009KT 10SM SKC 22/17 A2999
Observed
May-26 @ 02:45 UTC
Wind
  • 240° at 9 KTS
Visibility
10 SM
Flight Rules
VFR
Cloud Levels
  • Clear skies
Temperature
22°C / 72°F
Dewpoint
17°C / 63°F
Humidity
73%
Altimeter
29.99" Hg
Pressure
1015.62 hPa
Previous

2 hours ago

KCGF 260145Z 25011G19KT 10SM SKC 24/16 A2997
Observed
May-26 @ 01:45 UTC
Wind
  • 250° at 11 KTS
  • Gusting to 19 KTS
Visibility
10 SM
Flight Rules
VFR
Cloud Levels
  • Clear skies
Temperature
24°C / 75°F
Dewpoint
16°C / 61°F
Humidity
61%
Altimeter
29.97" Hg
Pressure
1014.92 hPa
Previous

3 hours ago

KCGF 260045Z 26009KT 10SM SCT150 24/17 A2995
Observed
May-26 @ 00:45 UTC
Wind
  • 260° at 9 KTS
Visibility
10 SM
Flight Rules
VFR
Cloud Levels
  • Scattered at 15,000' AGL
Temperature
24°C / 75°F
Dewpoint
17°C / 63°F
Humidity
65%
Altimeter
29.95" Hg
Pressure
1014.22 hPa